Time;durP1;ratioP1;P1;durP2;ratioP2;P2;SDS_P1;SDS_P2;PMS_P1;PMS_P2;Temp;Humidity;BMP_temperature;BMP_pressure;BME280_temperature;BME280_humidity;BME280_pressure;Samples;Min_cycle;Max_cycle;Signal;HPM_P1;HPM_P2
2023/02/05 00:00:05;;;;;;;9.07;6.13;;;;;;;1.55;100.00;97704.47;5103593;28;24440;-74
2023/02/05 00:02:32;;;;;;;11.63;6.50;;;;;;;1.56;100.00;97700.22;5098083;28;24466;-73
2023/02/05 00:04:58;;;;;;;8.68;6.10;;;;;;;1.56;100.00;97702.78;5102415;28;24441;-74
2023/02/05 00:07:25;;;;;;;10.55;5.75;;;;;;;1.36;100.00;97700.16;5092067;28;24434;-74
2023/02/05 00:09:51;;;;;;;8.07;5.72;;;;;;;1.15;100.00;97691.56;5089151;28;24437;-74
2023/02/05 00:12:18;;;;;;;7.72;5.25;;;;;;;1.16;100.00;97700.91;5098018;28;24812;-74
2023/02/05 00:14:46;;;;;;;9.82;5.97;;;;;;;1.01;100.00;97700.84;5095159;28;24446;-74
2023/02/05 00:17:12;;;;;;;8.67;5.63;;;;;;;0.98;100.00;97695.72;5098782;28;24462;-74
2023/02/05 00:19:39;;;;;;;7.63;5.50;;;;;;;1.13;100.00;97694.94;5094556;28;24437;-74
2023/02/05 00:22:05;;;;;;;9.10;5.50;;;;;;;1.26;100.00;97699.28;5100833;28;24444;-74
2023/02/05 00:24:32;;;;;;;10.20;5.20;;;;;;;1.36;100.00;97700.16;5095200;28;24437;-74
2023/02/05 00:26:58;;;;;;;9.35;6.07;;;;;;;1.40;100.00;97691.66;5101436;28;24428;-74
2023/02/05 00:29:24;;;;;;;7.75;5.28;;;;;;;1.34;100.00;97699.31;5095471;28;25178;-74
2023/02/05 00:31:52;;;;;;;7.22;5.25;;;;;;;1.34;100.00;97684.00;5103388;28;24457;-73
2023/02/05 00:34:19;;;;;;;12.63;5.13;;;;;;;1.39;100.00;97688.25;5090832;28;24453;-74
2023/02/05 00:36:45;;;;;;;12.85;5.85;;;;;;;1.31;100.00;97683.97;5085586;28;24455;-74
2023/02/05 00:39:13;;;;;;;9.52;5.55;;;;;;;1.18;100.00;97688.16;5094747;28;24440;-74
2023/02/05 00:41:39;;;;;;;8.40;5.50;;;;;;;1.19;100.00;97689.88;5090182;28;24430;-74
2023/02/05 00:44:06;;;;;;;9.23;5.70;;;;;;;1.19;100.00;97690.72;5099367;28;24456;-74
2023/02/05 00:46:33;;;;;;;11.25;5.30;;;;;;;1.24;100.00;97689.91;5090098;28;24501;-74
2023/02/05 00:49:00;;;;;;;12.68;5.25;;;;;;;1.18;100.00;97694.09;5094076;28;24619;-74
2023/02/05 00:51:27;;;;;;;8.20;5.33;;;;;;;1.25;100.00;97697.53;5092091;28;24766;-74
2023/02/05 00:53:53;;;;;;;7.43;5.15;;;;;;;1.39;100.00;97689.94;5091951;28;24441;-74
2023/02/05 00:56:20;;;;;;;7.90;5.10;;;;;;;1.41;100.00;97696.78;5094647;28;24437;-74
2023/02/05 00:58:48;;;;;;;9.60;5.03;;;;;;;1.36;100.00;97689.94;5083045;28;24487;-73
2023/02/05 01:01:15;;;;;;;9.05;5.28;;;;;;;1.30;100.00;97690.78;5095902;28;24484;-74
2023/02/05 01:03:42;;;;;;;6.50;5.10;;;;;;;1.25;100.00;97682.22;5093784;28;24536;-74
2023/02/05 01:06:10;;;;;;;9.45;5.03;;;;;;;1.28;100.00;97678.84;5098339;28;24430;-74
2023/02/05 01:08:37;;;;;;;8.63;5.18;;;;;;;1.23;100.00;97675.44;5077626;28;24417;-74
2023/02/05 01:11:06;;;;;;;13.73;9.53;;;;;;;1.01;100.00;97670.22;5096797;28;25010;-74
2023/02/05 01:13:33;;;;;;;10.90;6.55;;;;;;;0.86;100.00;97677.78;5089995;28;25033;-74
2023/02/05 01:15:59;;;;;;;9.68;5.45;;;;;;;0.76;100.00;97676.88;5098027;28;24433;-74
2023/02/05 01:18:26;;;;;;;8.48;5.25;;;;;;;0.79;100.00;97676.03;5091938;28;25018;-74
2023/02/05 01:20:52;;;;;;;8.85;5.20;;;;;;;0.80;100.00;97663.28;5096212;28;25046;-73
2023/02/05 01:23:20;;;;;;;8.75;5.00;;;;;;;0.87;100.00;97664.19;5092598;28;24430;-74
2023/02/05 01:25:46;;;;;;;7.32;4.93;;;;;;;0.85;100.00;97664.16;5095483;28;24438;-73
2023/02/05 01:28:13;;;;;;;6.28;4.60;;;;;;;0.88;100.00;97666.72;5096427;28;24433;-73
2023/02/05 01:30:39;;;;;;;7.65;5.07;;;;;;;0.94;100.00;97665.94;5105724;28;24437;-74
2023/02/05 01:33:06;;;;;;;8.98;4.60;;;;;;;0.98;100.00;97665.09;5091312;28;24445;-74
2023/02/05 01:35:33;;;;;;;7.47;4.47;;;;;;;0.92;100.00;97662.50;5102933;28;24433;-74
2023/02/05 01:37:59;;;;;;;6.05;4.75;;;;;;;0.85;100.00;97668.41;5097217;28;24457;-74
2023/02/05 01:40:27;;;;;;;7.00;4.57;;;;;;;0.83;100.00;97663.31;5088966;28;24441;-74
2023/02/05 01:42:53;;;;;;;6.95;4.18;;;;;;;0.83;100.00;97655.66;5098264;28;24462;-74
2023/02/05 01:45:49;;;;;;;9.18;5.00;;;;;;;0.87;100.00;97652.28;5089136;28;24446;-74
2023/02/05 01:48:20;;;;;;;6.07;4.25;;;;;;;0.90;100.00;97649.75;5091903;28;24433;-74
2023/02/05 01:50:50;;;;;;;7.05;4.57;;;;;;;0.92;100.00;97642.09;5089442;28;24804;-74
2023/02/05 01:53:21;;;;;;;8.57;4.95;;;;;;;0.96;100.00;97639.59;5077615;28;24839;-74
2023/02/05 01:55:53;;;;;;;6.82;4.38;;;;;;;0.82;100.00;97630.16;5082978;28;24807;-73
2023/02/05 01:58:20;;;;;;;8.70;4.85;;;;;;;0.71;100.00;97635.19;5083881;28;24457;-74
2023/02/05 02:00:47;;;;;;;8.70;4.72;;;;;;;0.48;100.00;97629.94;5091997;28;25033;-74
2023/02/05 02:03:15;;;;;;;10.13;5.28;;;;;;;0.37;100.00;97639.19;5091627;28;24796;-74
2023/02/05 02:05:41;;;;;;;8.30;4.53;;;;;;;0.38;100.00;97633.28;5101642;28;24440;-73
2023/02/05 02:08:10;;;;;;;7.47;4.45;;;;;;;0.44;100.00;97621.41;5075858;28;24434;-74
2023/02/05 02:10:36;;;;;;;7.50;5.00;;;;;;;0.55;100.00;97618.06;5099284;28;24438;-74
2023/02/05 02:13:04;;;;;;;6.13;4.18;;;;;;;0.63;100.00;97611.31;5089606;28;24442;-73
2023/02/05 02:15:32;;;;;;;6.40;4.20;;;;;;;0.73;100.00;97618.19;5102792;28;24442;-73
2023/02/05 02:20:42;;;;;;;8.68;3.88;;;;;;;0.68;100.00;97612.22;5093754;28;24422;-74
2023/02/05 02:23:20;;;;;;;5.60;3.67;;;;;;;0.68;100.00;97600.31;5102227;28;24433;-73
2023/02/05 02:26:11;;;;;;;5.78;4.07;;;;;;;0.64;100.00;97607.94;5094924;28;24438;-74
2023/02/05 02:28:45;;;;;;;7.90;3.97;;;;;;;0.57;100.00;97604.50;5096805;28;24803;-73
2023/02/05 02:31:17;;;;;;;6.57;4.25;;;;;;;0.56;100.00;97613.00;5105945;28;24430;-73
2023/02/05 02:33:49;;;;;;;7.43;4.05;;;;;;;0.64;100.00;97608.78;5089752;28;24445;-73
2023/02/05 02:36:19;;;;;;;5.30;3.95;;;;;;;0.68;100.00;97600.31;5105124;28;24452;-74
2023/02/05 02:38:52;;;;;;;8.15;4.25;;;;;;;0.70;100.00;97597.75;5092738;28;24456;-74
2023/02/05 02:41:28;;;;;;;6.00;3.90;;;;;;;0.62;100.00;97597.72;5089941;28;24869;-74
2023/02/05 02:43:58;;;;;;;5.57;4.10;;;;;;;0.59;100.00;97596.84;5103178;28;24440;-74
2023/02/05 02:46:28;;;;;;;5.85;4.22;;;;;;;0.59;100.00;97596.84;5090781;28;24430;-74
2023/02/05 02:48:57;;;;;;;6.23;4.00;;;;;;;0.66;100.00;97602.00;5088871;28;24462;-74
2023/02/05 02:51:27;;;;;;;6.55;4.38;;;;;;;0.75;100.00;97591.00;5088961;28;24988;-74
2023/02/05 02:53:57;;;;;;;7.50;4.10;;;;;;;0.62;100.00;97581.56;5102545;28;24449;-74
2023/02/05 02:56:26;;;;;;;7.38;4.20;;;;;;;0.58;100.00;97578.16;5096905;28;24801;-74
2023/02/05 02:58:57;;;;;;;8.05;3.58;;;;;;;0.53;100.00;97572.19;5095981;28;24472;-74
2023/02/05 03:01:27;;;;;;;5.88;4.18;;;;;;;0.53;100.00;97579.84;5100103;28;24444;-74
2023/02/05 03:03:59;;;;;;;7.28;3.95;;;;;;;0.58;100.00;97588.34;5096882;28;24434;-74
2023/02/05 03:06:26;;;;;;;9.00;3.92;;;;;;;0.62;100.00;97573.94;5094777;28;24434;-74
2023/02/05 03:08:57;;;;;;;7.60;4.10;;;;;;;0.48;100.00;97581.50;5082043;28;24437;-74
2023/02/05 03:11:25;;;;;;;9.10;4.65;;;;;;;0.23;100.00;97575.41;5098350;28;24434;-74
2023/02/05 03:13:54;;;;;;;9.57;4.43;;;;;;;0.15;100.00;97585.56;5084626;28;25063;-74
2023/02/05 03:16:23;;;;;;;8.40;4.63;;;;;;;0.04;100.00;97586.28;5099586;28;24785;-74
2023/02/05 03:18:50;;;;;;;6.25;4.20;;;;;;;0.14;100.00;97582.97;5093561;28;25015;-74
2023/02/05 03:21:19;;;;;;;5.00;3.83;;;;;;;0.14;100.00;97573.63;5101081;28;24793;-74
2023/02/05 03:23:45;;;;;;;8.98;4.47;;;;;;;0.33;100.00;97577.16;5096676;28;24441;-74
2023/02/05 03:26:26;;;;;;;6.80;4.28;;;;;;;0.34;100.00;97572.94;5088847;28;24800;-74
2023/02/05 03:28:53;;;;;;;7.05;4.05;;;;;;;0.26;100.00;97569.47;5093578;28;24810;-74
2023/02/05 03:31:25;;;;;;;7.25;4.82;;;;;;;0.34;100.00;97565.28;5100241;28;24441;-74
2023/02/05 03:34:03;;;;;;;5.40;4.15;;;;;;;0.24;100.00;97567.75;5097508;28;24974;-74
2023/02/05 03:36:50;;;;;;;6.55;4.63;;;;;;;0.18;100.00;97556.66;5098616;28;24430;-74
2023/02/05 03:39:28;;;;;;;6.13;4.50;;;;;;;0.19;100.00;97558.41;5090951;28;24456;-73
2023/02/05 03:42:08;;;;;;;7.82;4.60;;;;;;;0.28;100.00;97550.78;5092853;28;24429;-74
2023/02/05 03:44:53;;;;;;;6.70;4.70;;;;;;;0.30;100.00;97554.22;5101570;28;24437;-74
2023/02/05 03:47:34;;;;;;;13.37;4.87;;;;;;;0.21;100.00;97552.44;5098901;28;24552;-73
2023/02/05 03:50:11;;;;;;;16.58;4.63;;;;;;;-0.01;100.00;97548.91;5087698;28;24431;-73
2023/02/05 03:52:43;;;;;;;7.90;4.45;;;;;;;0.08;100.00;97554.94;5087073;28;25014;-75
2023/02/05 03:55:15;;;;;;;6.22;4.43;;;;;;;0.10;100.00;97561.72;5086207;28;24474;-74
2023/02/05 03:57:49;;;;;;;10.10;4.10;;;;;;;0.11;100.00;97553.25;5097604;28;24449;-74
2023/02/05 04:00:16;;;;;;;8.23;3.85;;;;;;;0.14;100.00;97550.69;5091245;28;24446;-74
2023/02/05 04:02:44;;;;;;;9.18;4.40;;;;;;;0.19;100.00;97538.88;5094386;28;24465;-74
2023/02/05 04:05:10;;;;;;;9.57;4.88;;;;;;;0.19;100.00;97543.97;5105096;28;24440;-74
2023/02/05 04:07:36;;;;;;;7.50;4.75;;;;;;;0.17;100.00;97539.69;5093936;28;24996;-74
2023/02/05 04:10:03;;;;;;;8.68;4.88;;;;;;;0.15;100.00;97536.25;5084255;28;24434;-74
2023/02/05 04:12:29;;;;;;;7.45;4.43;;;;;;;0.14;100.00;97545.59;5085953;28;24441;-74
2023/02/05 04:14:56;;;;;;;51.40;4.60;;;;;;;-0.14;100.00;97553.91;5094043;28;24438;-74
2023/02/05 04:17:22;;;;;;;58.05;5.03;;;;;;;-0.37;100.00;97556.25;5090574;28;24457;-74
2023/02/05 04:19:50;;;;;;;55.23;4.90;;;;;;;-0.69;100.00;97554.25;5090637;28;24514;-74
2023/02/05 04:22:17;;;;;;;11.65;3.35;;;;;;;-0.62;100.00;97547.56;5094417;28;24434;-74
2023/02/05 04:24:43;;;;;;;12.75;3.67;;;;;;;-0.59;100.00;97545.91;5100106;28;24449;-74
2023/02/05 04:27:10;;;;;;;18.10;4.00;;;;;;;-0.46;100.00;97551.09;5098923;28;24441;-73
2023/02/05 04:29:36;;;;;;;5.97;3.78;;;;;;;-0.36;100.00;97543.53;5099981;28;24434;-74
2023/02/05 04:32:02;;;;;;;6.35;3.95;;;;;;;-0.18;100.00;97547.09;5103551;28;24434;-74
2023/02/05 04:34:29;;;;;;;6.25;4.00;;;;;;;-0.11;100.00;97541.19;5093403;28;24792;-75
2023/02/05 04:36:57;;;;;;;8.63;6.50;;;;;;;0.03;100.00;97533.63;5097164;28;24437;-74
2023/02/05 04:39:23;;;;;;;9.50;6.80;;;;;;;0.10;100.00;97543.03;5097001;28;24457;-74
2023/02/05 04:41:50;;;;;;;9.55;5.68;;;;;;;0.08;100.00;97537.09;5090959;28;24440;-74
2023/02/05 04:44:16;;;;;;;10.00;5.20;;;;;;;0.13;100.00;97549.00;5096468;28;24441;-74
2023/02/05 04:46:43;;;;;;;6.18;4.07;;;;;;;0.21;100.00;97544.81;5101046;28;24451;-74
2023/02/05 04:49:09;;;;;;;4.05;3.53;;;;;;;0.34;100.00;97561.03;5093026;28;24521;-74
2023/02/05 04:51:35;;;;;;;5.30;3.80;;;;;;;0.41;100.00;97551.75;5082526;28;24441;-73
2023/02/05 04:54:03;;;;;;;11.60;3.72;;;;;;;0.27;100.00;97553.34;5092039;28;24443;-73
2023/02/05 04:56:30;;;;;;;4.95;3.60;;;;;;;0.13;100.00;97550.69;5098716;28;24994;-74
2023/02/05 04:58:56;;;;;;;12.00;4.35;;;;;;;0.36;100.00;97555.94;5083043;28;24457;-74
2023/02/05 05:01:24;;;;;;;5.55;4.40;;;;;;;0.29;100.00;97556.75;5095015;28;24442;-74
2023/02/05 05:03:50;;;;;;;7.20;4.35;;;;;;;0.22;100.00;97550.75;5095558;28;25018;-74
2023/02/05 05:06:18;;;;;;;7.57;4.38;;;;;;;0.27;100.00;97555.91;5097873;28;24438;-73
2023/02/05 05:08:44;;;;;;;5.97;4.03;;;;;;;0.18;100.00;97544.78;5081488;28;24430;-74
2023/02/05 05:11:15;;;;;;;8.05;4.70;;;;;;;0.17;100.00;97555.81;5099891;28;24437;-73
2023/02/05 05:13:42;;;;;;;5.37;4.57;;;;;;;0.15;100.00;97560.06;5094877;28;24437;-73
2023/02/05 05:16:10;;;;;;;7.55;4.57;;;;;;;0.25;100.00;97563.50;5088173;28;24441;-73
2023/02/05 05:18:37;;;;;;;8.20;4.82;;;;;;;0.43;100.00;97562.78;5085987;28;24543;-74
2023/02/05 05:21:04;;;;;;;7.20;5.07;;;;;;;0.34;100.00;97555.94;5093319;28;24508;-73
2023/02/05 05:23:32;;;;;;;8.13;4.47;;;;;;;0.39;100.00;97561.06;5094715;28;25028;-73
2023/02/05 05:25:58;;;;;;;6.35;4.50;;;;;;;0.31;100.00;97548.28;5083614;28;24438;-74
2023/02/05 05:28:26;;;;;;;4.30;3.60;;;;;;;0.25;100.00;97545.69;5090455;28;24816;-74
2023/02/05 05:30:53;;;;;;;4.47;3.60;;;;;;;0.15;100.00;97549.88;5108066;28;24525;-74
2023/02/05 05:33:19;;;;;;;7.10;4.00;;;;;;;-0.14;100.00;97553.91;5094778;28;24460;-73
2023/02/05 05:35:45;;;;;;;4.70;3.65;;;;;;;-0.07;100.00;97553.13;5100792;28;24441;-73
2023/02/05 05:38:12;;;;;;;4.28;3.53;;;;;;;0.05;100.00;97547.25;5100569;28;24457;-73
2023/02/05 05:46:09;;;;;;;5.68;3.38;;;;;;;0.27;100.00;97551.66;5099456;28;24470;-74
2023/02/05 05:48:35;;;;;;;5.43;3.50;;;;;;;0.22;100.00;97554.19;5096096;28;24427;-73
2023/02/05 05:51:02;;;;;;;4.60;2.88;;;;;;;0.29;100.00;97549.94;5084524;28;25025;-73
2023/02/05 05:53:29;;;;;;;4.68;3.03;;;;;;;0.34;100.00;97548.28;5087415;28;24442;-74
2023/02/05 05:55:56;;;;;;;6.18;3.20;;;;;;;0.42;100.00;97543.25;5101028;28;24796;-73
2023/02/05 05:58:22;;;;;;;4.60;2.90;;;;;;;0.45;100.00;97530.50;5095755;28;24699;-73
2023/02/05 06:00:49;;;;;;;4.55;3.42;;;;;;;0.44;100.00;97531.34;5105415;28;24430;-74
2023/02/05 06:03:17;;;;;;;11.27;4.32;;;;;;;0.42;100.00;97533.88;5090216;28;24430;-73
2023/02/05 06:05:43;;;;;;;9.55;5.70;;;;;;;0.45;100.00;97533.91;5092285;28;24995;-73
2023/02/05 06:08:10;;;;;;;24.27;13.65;;;;;;;0.22;100.00;97543.09;5091205;28;24971;-73
2023/02/05 06:10:36;;;;;;;10.00;7.30;;;;;;;0.12;100.00;97549.00;5094843;28;24812;-73
2023/02/05 06:13:03;;;;;;;10.57;5.60;;;;;;;0.05;100.00;97557.44;5093616;28;24434;-73
2023/02/05 06:15:29;;;;;;;6.00;4.50;;;;;;;0.11;100.00;97549.81;5096900;28;24445;-73
2023/02/05 06:17:56;;;;;;;6.65;4.30;;;;;;;0.20;100.00;97553.31;5099138;28;24437;-74
2023/02/05 06:20:25;;;;;;;5.63;3.92;;;;;;;0.26;100.00;97544.84;5096457;28;24432;-74
2023/02/05 06:22:52;;;;;;;4.47;3.30;;;;;;;0.35;100.00;97556.78;5102413;28;25030;-73
2023/02/05 06:25:18;;;;;;;4.35;3.58;;;;;;;0.31;100.00;97560.16;5101866;28;24460;-73
2023/02/05 06:27:45;;;;;;;6.70;4.00;;;;;;;0.40;100.00;97550.84;5094790;28;24434;-73
2023/02/05 06:30:12;;;;;;;5.38;3.80;;;;;;;0.40;100.00;97550.00;5104908;28;24434;-73
2023/02/05 06:32:39;;;;;;;4.83;3.80;;;;;;;0.39;100.00;97548.31;5106085;28;25051;-74
2023/02/05 06:35:06;;;;;;;5.47;3.80;;;;;;;0.33;100.00;97545.72;5088406;28;25035;-73
2023/02/05 06:37:34;;;;;;;4.93;3.03;;;;;;;0.38;100.00;97549.16;5100199;28;24440;-73
2023/02/05 06:40:00;;;;;;;4.90;2.83;;;;;;;0.42;100.00;97544.09;5100083;28;24454;-73
2023/02/05 06:42:27;;;;;;;4.25;3.13;;;;;;;0.47;100.00;97544.94;5106914;28;24444;-73
2023/02/05 06:44:53;;;;;;;4.35;3.20;;;;;;;0.52;100.00;97547.56;5090278;28;24458;-73
2023/02/05 06:47:20;;;;;;;5.88;2.85;;;;;;;0.39;100.00;97553.41;5104736;28;24445;-73
2023/02/05 06:49:46;;;;;;;3.63;2.97;;;;;;;0.44;100.00;97544.94;5100791;28;24431;-73
2023/02/05 06:52:13;;;;;;;4.60;3.17;;;;;;;0.50;100.00;97544.13;5084562;28;24438;-74
2023/02/05 06:54:42;;;;;;;4.03;3.22;;;;;;;0.48;100.00;97558.53;5100292;28;24552;-74
2023/02/05 06:57:08;;;;;;;4.75;2.95;;;;;;;0.50;100.00;97551.78;5091344;28;24434;-75
2023/02/05 06:59:35;;;;;;;5.15;3.35;;;;;;;0.49;100.00;97555.19;5093382;28;24984;-75
2023/02/05 07:02:01;;;;;;;5.90;3.67;;;;;;;0.42;100.00;97556.84;5089716;28;24940;-75
2023/02/05 07:04:29;;;;;;;7.30;4.07;;;;;;;0.23;100.00;97565.22;5096079;28;24442;-74
2023/02/05 07:06:56;;;;;;;5.00;3.40;;;;;;;0.18;100.00;97564.31;5095581;28;24442;-74
2023/02/05 07:09:23;;;;;;;5.05;3.00;;;;;;;0.27;100.00;97566.09;5082415;28;24434;-74
2023/02/05 07:11:51;;;;;;;6.80;3.15;;;;;;;0.35;100.00;97580.56;5098217;28;24437;-74
2023/02/05 07:14:18;;;;;;;5.80;3.30;;;;;;;0.46;100.00;97573.00;5090780;28;24435;-74
2023/02/05 07:16:44;;;;;;;7.27;3.43;;;;;;;0.47;100.00;97572.16;5094990;28;24524;-74
2023/02/05 07:19:10;;;;;;;7.60;4.53;;;;;;;0.45;100.00;97567.06;5091984;28;24450;-74
2023/02/05 07:21:37;;;;;;;8.15;4.20;;;;;;;0.56;100.00;97564.56;5104881;28;24434;-74
2023/02/05 07:24:04;;;;;;;7.97;5.15;;;;;;;0.63;100.00;97560.31;5097438;28;24430;-74
2023/02/05 07:26:30;;;;;;;7.28;5.68;;;;;;;0.60;100.00;97562.88;5098641;28;24441;-74
2023/02/05 07:28:58;;;;;;;6.18;4.90;;;;;;;0.62;100.00;97562.03;5092880;28;25456;-74
2023/02/05 07:31:24;;;;;;;5.95;4.05;;;;;;;0.70;100.00;97568.03;5101766;28;24815;-74
2023/02/05 07:33:51;;;;;;;5.90;3.78;;;;;;;0.79;100.00;97561.28;5103089;28;24816;-74
2023/02/05 07:36:18;;;;;;;5.15;3.75;;;;;;;0.76;100.00;97561.25;5101434;28;24995;-74
2023/02/05 07:38:46;;;;;;;5.57;3.67;;;;;;;0.72;100.00;97557.84;5086337;28;24449;-74
2023/02/05 07:41:14;;;;;;;7.55;5.05;;;;;;;0.54;100.00;97548.38;5096304;28;24445;-74
2023/02/05 07:43:41;;;;;;;5.45;4.70;;;;;;;0.50;100.00;97549.22;5099633;28;24978;-74
2023/02/05 07:46:12;;;;;;;8.18;4.43;;;;;;;0.56;100.00;97544.16;5094041;28;24438;-74
2023/02/05 07:48:39;;;;;;;4.63;3.53;;;;;;;0.64;100.00;97542.50;5102739;28;24428;-74
2023/02/05 07:51:07;;;;;;;5.68;3.60;;;;;;;0.66;100.00;97540.78;5099851;28;24449;-74
2023/02/05 07:53:33;;;;;;;9.45;4.88;;;;;;;0.59;100.00;97538.22;5095737;28;24446;-73
2023/02/05 07:56:02;;;;;;;10.45;6.13;;;;;;;0.48;100.00;97544.13;5097144;28;24433;-74
2023/02/05 07:58:29;;;;;;;8.43;6.25;;;;;;;0.55;100.00;97542.44;5085859;28;24438;-74
2023/02/05 08:00:59;;;;;;;24.80;13.27;;;;;;;0.59;100.00;97540.75;5103073;28;24437;-74
2023/02/05 08:03:27;;;;;;;19.95;11.65;;;;;;;0.67;100.00;97547.63;5084129;28;24435;-74
2023/02/05 08:05:53;;;;;;;26.63;14.90;;;;;;;0.63;100.00;97539.94;5085339;28;24434;-74
2023/02/05 08:08:20;;;;;;;25.15;14.40;;;;;;;0.59;100.00;97533.97;5089237;28;25025;-75
2023/02/05 08:10:46;;;;;;;22.60;16.20;;;;;;;0.57;100.00;97519.53;5097299;28;24806;-74
2023/02/05 08:13:13;;;;;;;10.70;7.73;;;;;;;0.51;100.00;97524.56;5097559;28;25027;-74
2023/02/05 08:15:40;;;;;;;7.30;5.32;;;;;;;0.51;100.00;97539.88;5098361;28;24445;-73
2023/02/05 08:18:06;;;;;;;8.60;4.70;;;;;;;0.41;100.00;97539.00;5101735;28;24878;-73
2023/02/05 08:20:34;;;;;;;6.95;4.13;;;;;;;0.35;100.00;97541.50;5097403;28;24457;-74
2023/02/05 08:23:03;;;;;;;8.38;3.80;;;;;;;0.47;100.00;97546.66;5099820;28;24437;-74
2023/02/05 08:25:30;;;;;;;11.52;5.45;;;;;;;0.65;100.00;97526.34;5088021;28;24537;-69
2023/02/05 08:27:57;;;;;;;30.70;16.52;;;;;;;0.81;100.00;97528.97;5088484;28;24462;-74
2023/02/05 08:30:23;;;;;;;33.30;15.23;;;;;;;0.87;100.00;97526.44;5097226;28;24843;-75
2023/02/05 08:32:50;;;;;;;22.67;11.03;;;;;;;0.92;100.00;97520.47;5098251;28;24851;-75
2023/02/05 08:35:17;;;;;;;11.38;6.18;;;;;;;0.95;100.00;97517.09;5101392;28;24441;-74
2023/02/05 08:37:45;;;;;;;10.88;5.55;;;;;;;0.99;100.00;97523.06;5102160;28;24457;-74
2023/02/05 08:40:12;;;;;;;6.88;3.97;;;;;;;1.07;100.00;97518.84;5094658;28;24470;-74
2023/02/05 08:42:39;;;;;;;6.63;3.47;;;;;;;1.10;100.00;97514.59;5101114;28;24997;-74
2023/02/05 08:45:07;;;;;;;7.78;3.47;;;;;;;1.13;100.00;97506.94;5090000;28;25019;-74
2023/02/05 08:47:34;;;;;;;8.32;3.70;;;;;;;1.21;100.00;97505.25;5101847;28;24536;-74
2023/02/05 08:50:01;;;;;;;6.25;3.90;;;;;;;1.23;100.00;97507.81;5097561;28;24430;-74
2023/02/05 08:52:28;;;;;;;8.15;3.67;;;;;;;1.31;100.00;97489.97;5093719;28;24791;-74
2023/02/05 08:54:55;;;;;;;7.43;4.07;;;;;;;1.39;100.00;97485.72;5093509;28;25005;-74
2023/02/05 08:57:22;;;;;;;7.43;3.63;;;;;;;1.43;100.00;97474.66;5082339;28;25023;-74
2023/02/05 08:59:48;;;;;;;11.90;3.90;;;;;;;1.45;100.00;97468.72;5104203;28;24552;-74
2023/02/05 09:02:15;;;;;;;9.63;4.10;;;;;;;1.48;100.00;97469.53;5090851;28;24430;-74
2023/02/05 09:04:42;;;;;;;11.93;4.35;;;;;;;1.55;100.00;97464.44;5098165;28;25058;-74
2023/02/05 09:07:09;;;;;;;8.20;4.60;;;;;;;1.60;100.00;97472.13;5095183;28;24431;-74
2023/02/05 09:09:35;;;;;;;8.80;4.32;;;;;;;1.64;100.00;97474.66;5097678;28;24804;-74
2023/02/05 09:12:04;;;;;;;8.68;4.53;;;;;;;1.65;100.00;97460.19;5097611;28;24437;-74
2023/02/05 09:14:34;;;;;;;7.60;4.53;;;;;;;1.65;100.00;97463.59;5093376;28;24792;-74
2023/02/05 09:17:01;;;;;;;8.03;4.27;;;;;;;1.60;100.00;97459.34;5098966;28;24529;-74
2023/02/05 09:19:28;;;;;;;9.63;4.82;;;;;;;1.68;100.00;97458.47;5096006;28;24825;-74
2023/02/05 09:21:54;;;;;;;7.75;4.30;;;;;;;1.69;100.00;97464.44;5104745;28;24990;-74
2023/02/05 09:24:21;;;;;;;10.93;4.70;;;;;;;1.58;100.00;97456.78;5096185;28;25022;-74
2023/02/05 09:26:47;;;;;;;10.60;4.28;;;;;;;1.54;100.00;97465.28;5099141;28;25029;-74
2023/02/05 09:29:15;;;;;;;10.68;4.30;;;;;;;1.50;100.00;97452.53;5101968;28;24788;-73
2023/02/05 09:31:41;;;;;;;10.53;4.70;;;;;;;1.49;100.00;97449.13;5104227;28;24441;-73
2023/02/05 09:34:08;;;;;;;12.57;6.23;;;;;;;1.38;100.00;97453.38;5105752;28;24524;-73
2023/02/05 09:36:34;;;;;;;9.63;4.63;;;;;;;1.35;100.00;97458.50;5105031;28;24445;-74
2023/02/05 09:39:01;;;;;;;14.02;4.50;;;;;;;1.40;100.00;97452.50;5097871;28;24437;-74
2023/02/05 09:41:35;;;;;;;12.95;7.38;;;;;;;1.40;100.00;97446.56;5096717;28;24496;-73
2023/02/05 09:44:12;;;;;;;10.23;5.07;;;;;;;1.32;100.00;97456.78;5101403;28;24441;-73
2023/02/05 09:46:50;;;;;;;8.57;4.78;;;;;;;1.38;100.00;97448.28;5097259;28;24449;-73
2023/02/05 09:49:19;;;;;;;8.93;4.67;;;;;;;1.34;100.00;97444.03;5104696;28;24429;-73
2023/02/05 09:51:47;;;;;;;10.45;4.30;;;;;;;1.36;100.00;97442.31;5087460;28;25057;-73
2023/02/05 09:54:20;;;;;;;17.40;10.67;;;;;;;1.36;100.00;97440.59;5101383;28;24436;-73
2023/02/05 09:56:50;;;;;;;18.40;11.20;;;;;;;1.38;100.00;97438.91;5100087;28;24437;-73
2023/02/05 09:59:20;;;;;;;9.35;4.90;;;;;;;1.41;100.00;97438.06;5100089;28;24452;-74
2023/02/05 10:01:51;;;;;;;7.95;4.85;;;;;;;1.39;100.00;97434.66;5092475;28;24438;-74
2023/02/05 10:04:18;;;;;;;7.25;4.40;;;;;;;1.41;100.00;97436.38;5099252;28;24442;-73
2023/02/05 10:07:11;;;;;;;8.77;4.70;;;;;;;1.49;100.00;97441.47;5101245;28;24809;-73
2023/02/05 10:09:58;;;;;;;13.23;7.97;;;;;;;1.56;100.00;97432.97;5093678;28;24434;-73
2023/02/05 10:12:37;;;;;;;10.93;6.00;;;;;;;1.64;100.00;97438.06;5078666;28;24546;-73
2023/02/05 10:15:20;;;;;;;11.07;6.60;;;;;;;1.67;100.00;97435.50;5093685;28;24846;-73
2023/02/05 10:18:02;;;;;;;8.97;5.50;;;;;;;1.75;100.00;97444.00;5084878;28;25013;-73
2023/02/05 10:20:42;;;;;;;11.35;7.07;;;;;;;1.79;100.00;97434.63;5101955;28;24478;-76
2023/02/05 10:23:35;;;;;;;10.15;5.65;;;;;;;1.85;100.00;97437.16;5093284;28;24525;-72
2023/02/05 10:26:10;;;;;;;9.07;6.93;;;;;;;1.90;100.00;97435.47;5087898;28;24435;-73
2023/02/05 10:28:57;;;;;;;12.85;5.50;;;;;;;1.93;100.00;97427.78;5091264;28;24435;-73
2023/02/05 10:31:34;;;;;;;10.68;5.07;;;;;;;2.04;100.00;97420.06;5101127;28;24797;-73
2023/02/05 10:34:11;;;;;;;6.03;4.20;;;;;;;2.09;100.00;97409.00;5100142;28;24831;-72
2023/02/05 10:36:38;;;;;;;11.77;4.00;;;;;;;2.07;100.00;97400.47;5092167;28;24441;-72
2023/02/05 10:39:13;;;;;;;8.65;4.47;;;;;;;2.12;100.00;97393.66;5094378;28;24845;-72
2023/02/05 10:41:44;;;;;;;9.25;4.63;;;;;;;2.09;100.00;97380.03;5094656;28;24426;-72
2023/02/05 10:44:16;;;;;;;15.13;8.53;;;;;;;2.10;100.00;97381.72;5095959;28;24992;-72
2023/02/05 10:46:50;;;;;;;8.82;5.18;;;;;;;2.09;100.00;97377.50;5109574;28;24448;-73
2023/02/05 10:49:24;;;;;;;10.95;4.90;;;;;;;2.05;100.00;97381.75;5099087;28;24437;-74
2023/02/05 10:51:52;;;;;;;6.97;4.60;;;;;;;2.10;100.00;97386.84;5090353;28;24433;-73
2023/02/05 10:54:23;;;;;;;14.18;5.15;;;;;;;2.11;100.00;97389.41;5102210;28;24438;-73
2023/02/05 10:56:49;;;;;;;7.82;4.72;;;;;;;2.18;100.00;97385.94;5089293;28;24777;-73
2023/02/05 10:59:22;;;;;;;8.27;5.40;;;;;;;2.24;100.00;97384.25;5098282;28;24438;-73
2023/02/05 11:01:50;;;;;;;14.03;8.20;;;;;;;2.31;100.00;97385.91;5092784;28;24441;-75
2023/02/05 11:04:24;;;;;;;10.75;6.32;;;;;;;2.29;100.00;97382.50;5103350;28;24449;-73
2023/02/05 11:06:52;;;;;;;14.50;7.72;;;;;;;2.20;100.00;97383.41;5094329;28;24442;-74
2023/02/05 11:09:30;;;;;;;24.00;7.80;;;;;;;2.20;100.00;97380.84;5092578;28;24441;-73
2023/02/05 11:11:58;;;;;;;13.00;6.10;;;;;;;2.22;100.00;97379.13;5093431;28;24437;-73
2023/02/05 11:14:31;;;;;;;10.30;6.03;;;;;;;2.27;100.00;97371.47;5099039;28;24445;-73
2023/02/05 11:16:58;;;;;;;11.00;7.60;;;;;;;2.30;100.00;97376.53;5099994;28;24445;-74
2023/02/05 11:19:28;;;;;;;10.45;6.50;;;;;;;2.35;100.00;97359.47;5098558;28;24434;-73
2023/02/05 11:21:56;;;;;;;9.60;6.82;;;;;;;2.40;100.00;97355.19;5105960;28;24429;-74
2023/02/05 11:24:26;;;;;;;12.40;7.70;;;;;;;2.44;100.00;97351.75;5101409;28;24449;-74
2023/02/05 11:27:19;;;;;;;8.63;5.65;;;;;;;2.49;100.00;97349.19;5101663;28;24436;-75
2023/02/05 11:29:45;;;;;;;27.67;16.60;;;;;;;2.51;100.00;97350.84;5100120;28;24441;-75
2023/02/05 11:32:19;;;;;;;28.30;15.48;;;;;;;2.51;100.00;97348.28;5104311;28;24440;-73
2023/02/05 11:34:47;;;;;;;13.10;7.78;;;;;;;2.55;100.00;97337.19;5087258;28;24442;-73
2023/02/05 11:37:17;;;;;;;8.52;5.40;;;;;;;2.58;100.00;97333.78;5097283;28;24426;-73
2023/02/05 11:39:45;;;;;;;8.35;5.15;;;;;;;2.58;100.00;97336.31;5098270;28;24546;-74
2023/02/05 11:42:18;;;;;;;7.22;4.65;;;;;;;2.64;100.00;97332.03;5102145;28;24514;-74
2023/02/05 11:44:48;;;;;;;7.68;4.88;;;;;;;2.69;100.00;97331.16;5092851;28;24464;-73
2023/02/05 11:47:23;;;;;;;6.95;4.70;;;;;;;2.77;100.00;97337.06;5099436;28;24434;-73